Impacts METAR Board
IDs:

KIAH - Houston/Bush Intl, TX, US

Updated at: 2000 UTC 26 Sep 2021
Potential Impact None Slight Moderate High
Time 26/08Z 26/09Z 26/10Z 26/11Z 26/12Z 26/13Z 26/14Z 26/15Z 26/16Z 26/17Z 26/18Z 26/19Z 26/20Z
Temp64 64 64 63 63 65 70 76 79 82 83 85 86
Dewpt59 59 59 59 58 61 62 63 63 60 58 58 59
Altim30.08 30.07 30.07 30.09 30.10 30.11 30.12 30.13 30.13 30.11 30.09 30.07 30.03
VIS10 10 10 10 10 9 10 10 10 10 10 10 10
CIG-- -- -- -- -- -- -- -- -- -- -- -- --
CoverFEWFEWFEWFEWSCTFEWFEWFEWFEWFEWFEWFEWFEW
FltCatVFRVFRVFRVFRVFRVFRVFRVFRVFRVFRVFRVFRVFR
WX--------------------------
WDir00036000100601001001300
WSpd0 0 0 3 0 0 4 4 5 4 9 7 5
WGst-- -- -- -- -- -- -- -- -- -- -- -- --
Raw hourly METARs
KIAH 260753Z 00000KT 10SM FEW250 18/15 A3008 RMK AO2 SLP185 T01780150
KIAH 260853Z 00000KT 10SM FEW250 18/15 A3007 RMK AO2 SLP184 T01780150 50005
KIAH 260953Z 00000KT 10SM FEW250 18/15 A3007 RMK AO2 SLP183 T01780150
KIAH 261053Z 36003KT 10SM FEW250 17/15 A3009 RMK AO2 SLP189 T01720150
KIAH 261153Z 00000KT 10SM SCT250 17/14 A3010 RMK AO2 SLP192 T01720144 10183 20167 53008
KIAH 261253Z 00000KT 9SM FEW250 18/16 A3011 RMK AO2 SLP195 T01830161
KIAH 261353Z 01004KT 10SM FEW250 21/17 A3012 RMK AO2 SLP200 T02110167
KIAH 261453Z VRB04KT 10SM FEW250 24/17 A3013 RMK AO2 SLP203 T02440172 52010
KIAH 261553Z 06005KT 10SM FEW250 26/17 A3013 RMK AO2 SLP201 T02610172
KIAH 261653Z 10004KT 10SM FEW040 FEW250 28/16 A3011 RMK AO2 SLP196 T02780156
KIAH 261753Z 10009KT 10SM FEW050 FEW250 28/14 A3009 RMK AO2 SLP189 T02830144 10289 20172 58014
KIAH 261853Z 13007KT 090V160 10SM FEW050 FEW250 29/14 A3007 RMK AO2 SLP181 T02940144
KIAH 261953Z VRB05KT 10SM FEW050 FEW250 30/15 A3003 RMK AO2 SLP169 T03000150



Page loaded:  20:08 UTC  |   01:08 PM Pacific  |   02:08 PM Mountain  |   03:08 PM Central  |   04:08 PM Eastern

 

ADVISORIES

FORECASTS

FORECASTS

OBSERVATIONS

USER TOOLS

ABOUT US